sensor_id;sensor_type;location;lat;lon;timestamp;P1;durP1;ratioP1;P2;durP2;ratioP2
11037;SDS011;5572;49.540;11.932;2023-01-20T00:01:25;9.27;;;6.10;;
11037;SDS011;5572;49.540;11.932;2023-01-20T00:03:53;11.07;;;6.60;;
11037;SDS011;5572;49.540;11.932;2023-01-20T00:06:21;12.40;;;6.63;;
11037;SDS011;5572;49.540;11.932;2023-01-20T00:08:49;9.73;;;6.50;;
11037;SDS011;5572;49.540;11.932;2023-01-20T00:11:16;11.63;;;7.00;;
11037;SDS011;5572;49.540;11.932;2023-01-20T00:13:43;10.37;;;6.67;;
11037;SDS011;5572;49.540;11.932;2023-01-20T00:16:11;8.57;;;6.50;;
11037;SDS011;5572;49.540;11.932;2023-01-20T00:18:38;10.07;;;7.00;;
11037;SDS011;5572;49.540;11.932;2023-01-20T00:21:06;7.80;;;6.40;;
11037;SDS011;5572;49.540;11.932;2023-01-20T00:23:34;9.20;;;5.90;;
11037;SDS011;5572;49.540;11.932;2023-01-20T00:26:04;11.30;;;7.33;;
11037;SDS011;5572;49.540;11.932;2023-01-20T00:28:32;8.80;;;6.00;;
11037;SDS011;5572;49.540;11.932;2023-01-20T00:31:08;12.57;;;6.27;;
11037;SDS011;5572;49.540;11.932;2023-01-20T00:33:37;9.87;;;6.90;;
11037;SDS011;5572;49.540;11.932;2023-01-20T00:36:04;9.17;;;6.37;;
11037;SDS011;5572;49.540;11.932;2023-01-20T00:38:32;9.13;;;6.20;;
11037;SDS011;5572;49.540;11.932;2023-01-20T00:40:58;8.17;;;6.43;;
11037;SDS011;5572;49.540;11.932;2023-01-20T00:43:25;9.60;;;6.80;;
11037;SDS011;5572;49.540;11.932;2023-01-20T00:45:52;12.80;;;7.77;;
11037;SDS011;5572;49.540;11.932;2023-01-20T00:48:20;9.07;;;6.07;;
11037;SDS011;5572;49.540;11.932;2023-01-20T00:50:47;10.17;;;6.43;;
11037;SDS011;5572;49.540;11.932;2023-01-20T00:53:13;10.70;;;6.27;;
11037;SDS011;5572;49.540;11.932;2023-01-20T00:55:40;12.13;;;6.50;;
11037;SDS011;5572;49.540;11.932;2023-01-20T00:58:07;8.47;;;6.17;;
11037;SDS011;5572;49.540;11.932;2023-01-20T01:00:33;8.00;;;5.87;;
11037;SDS011;5572;49.540;11.932;2023-01-20T01:03:00;11.10;;;6.43;;
11037;SDS011;5572;49.540;11.932;2023-01-20T01:05:28;10.13;;;6.50;;
11037;SDS011;5572;49.540;11.932;2023-01-20T01:07:54;9.77;;;5.77;;
11037;SDS011;5572;49.540;11.932;2023-01-20T01:10:21;7.33;;;5.77;;
11037;SDS011;5572;49.540;11.932;2023-01-20T01:12:47;8.57;;;5.83;;
11037;SDS011;5572;49.540;11.932;2023-01-20T01:15:14;13.43;;;7.10;;
11037;SDS011;5572;49.540;11.932;2023-01-20T01:17:41;9.37;;;6.23;;
11037;SDS011;5572;49.540;11.932;2023-01-20T01:20:09;11.13;;;6.80;;
11037;SDS011;5572;49.540;11.932;2023-01-20T01:22:38;10.03;;;6.40;;
11037;SDS011;5572;49.540;11.932;2023-01-20T01:25:05;11.73;;;5.60;;
11037;SDS011;5572;49.540;11.932;2023-01-20T01:27:32;6.00;;;5.07;;
11037;SDS011;5572;49.540;11.932;2023-01-20T01:29:59;10.23;;;6.60;;
11037;SDS011;5572;49.540;11.932;2023-01-20T01:32:26;12.07;;;7.37;;
11037;SDS011;5572;49.540;11.932;2023-01-20T01:34:53;11.83;;;7.67;;
11037;SDS011;5572;49.540;11.932;2023-01-20T01:37:20;27.00;;;13.47;;
11037;SDS011;5572;49.540;11.932;2023-01-20T01:39:47;15.63;;;8.83;;
11037;SDS011;5572;49.540;11.932;2023-01-20T01:42:15;10.77;;;7.17;;
11037;SDS011;5572;49.540;11.932;2023-01-20T01:47:40;11.20;;;8.07;;
11037;SDS011;5572;49.540;11.932;2023-01-20T01:50:10;19.27;;;9.87;;
11037;SDS011;5572;49.540;11.932;2023-01-20T01:52:41;15.83;;;8.17;;
11037;SDS011;5572;49.540;11.932;2023-01-20T01:55:11;15.47;;;8.70;;
11037;SDS011;5572;49.540;11.932;2023-01-20T01:57:40;15.33;;;7.07;;
11037;SDS011;5572;49.540;11.932;2023-01-20T02:00:08;12.70;;;8.60;;
11037;SDS011;5572;49.540;11.932;2023-01-20T02:02:36;14.57;;;7.30;;
11037;SDS011;5572;49.540;11.932;2023-01-20T02:05:03;11.90;;;7.67;;
11037;SDS011;5572;49.540;11.932;2023-01-20T02:07:30;10.00;;;7.07;;
11037;SDS011;5572;49.540;11.932;2023-01-20T02:09:59;12.60;;;7.30;;
11037;SDS011;5572;49.540;11.932;2023-01-20T02:12:27;9.57;;;6.80;;
11037;SDS011;5572;49.540;11.932;2023-01-20T02:14:55;10.60;;;7.70;;
11037;SDS011;5572;49.540;11.932;2023-01-20T02:17:24;9.67;;;7.03;;
11037;SDS011;5572;49.540;11.932;2023-01-20T02:26:28;10.13;;;6.60;;
11037;SDS011;5572;49.540;11.932;2023-01-20T02:32:20;9.67;;;6.20;;
11037;SDS011;5572;49.540;11.932;2023-01-20T02:35:08;9.83;;;6.37;;
11037;SDS011;5572;49.540;11.932;2023-01-20T02:37:39;11.70;;;6.53;;
11037;SDS011;5572;49.540;11.932;2023-01-20T02:40:15;11.87;;;7.30;;
11037;SDS011;5572;49.540;11.932;2023-01-20T02:42:54;11.77;;;7.13;;
11037;SDS011;5572;49.540;11.932;2023-01-20T02:45:28;11.37;;;6.90;;
11037;SDS011;5572;49.540;11.932;2023-01-20T02:48:00;10.63;;;7.63;;
11037;SDS011;5572;49.540;11.932;2023-01-20T02:50:34;10.83;;;7.50;;
11037;SDS011;5572;49.540;11.932;2023-01-20T02:53:05;14.33;;;7.50;;
11037;SDS011;5572;49.540;11.932;2023-01-20T02:55:34;12.53;;;7.77;;
11037;SDS011;5572;49.540;11.932;2023-01-20T02:58:06;9.17;;;6.60;;
11037;SDS011;5572;49.540;11.932;2023-01-20T03:00:36;15.83;;;8.47;;
11037;SDS011;5572;49.540;11.932;2023-01-20T03:03:09;11.50;;;7.67;;
11037;SDS011;5572;49.540;11.932;2023-01-20T03:05:39;11.90;;;7.97;;
11037;SDS011;5572;49.540;11.932;2023-01-20T03:08:12;11.17;;;7.83;;
11037;SDS011;5572;49.540;11.932;2023-01-20T03:10:40;13.40;;;8.03;;
11037;SDS011;5572;49.540;11.932;2023-01-20T03:13:08;11.10;;;8.33;;
11037;SDS011;5572;49.540;11.932;2023-01-20T03:15:40;19.63;;;9.37;;
11037;SDS011;5572;49.540;11.932;2023-01-20T03:18:16;9.33;;;5.83;;
11037;SDS011;5572;49.540;11.932;2023-01-20T03:20:42;19.57;;;9.53;;
11037;SDS011;5572;49.540;11.932;2023-01-20T03:23:09;17.13;;;9.80;;
11037;SDS011;5572;49.540;11.932;2023-01-20T03:25:35;19.83;;;10.57;;
11037;SDS011;5572;49.540;11.932;2023-01-20T03:28:03;20.80;;;11.30;;
11037;SDS011;5572;49.540;11.932;2023-01-20T03:30:30;23.53;;;12.27;;
11037;SDS011;5572;49.540;11.932;2023-01-20T03:32:56;20.50;;;11.83;;
11037;SDS011;5572;49.540;11.932;2023-01-20T03:35:25;32.20;;;14.47;;
11037;SDS011;5572;49.540;11.932;2023-01-20T03:37:52;17.97;;;11.63;;
11037;SDS011;5572;49.540;11.932;2023-01-20T03:40:18;29.30;;;14.77;;
11037;SDS011;5572;49.540;11.932;2023-01-20T03:42:49;27.30;;;13.77;;
11037;SDS011;5572;49.540;11.932;2023-01-20T03:45:23;24.50;;;12.07;;
11037;SDS011;5572;49.540;11.932;2023-01-20T03:47:57;22.37;;;11.03;;
11037;SDS011;5572;49.540;11.932;2023-01-20T03:50:33;20.23;;;11.23;;
11037;SDS011;5572;49.540;11.932;2023-01-20T03:53:04;16.43;;;9.73;;
11037;SDS011;5572;49.540;11.932;2023-01-20T03:55:40;20.93;;;11.17;;
11037;SDS011;5572;49.540;11.932;2023-01-20T03:58:13;27.63;;;13.17;;
11037;SDS011;5572;49.540;11.932;2023-01-20T04:00:45;20.70;;;11.97;;
11037;SDS011;5572;49.540;11.932;2023-01-20T04:03:15;16.13;;;9.57;;
11037;SDS011;5572;49.540;11.932;2023-01-20T04:05:46;17.47;;;9.23;;
11037;SDS011;5572;49.540;11.932;2023-01-20T04:08:15;26.37;;;12.73;;
11037;SDS011;5572;49.540;11.932;2023-01-20T04:10:45;25.83;;;14.20;;
11037;SDS011;5572;49.540;11.932;2023-01-20T04:13:14;21.30;;;12.07;;
11037;SDS011;5572;49.540;11.932;2023-01-20T04:15:41;25.00;;;12.30;;
11037;SDS011;5572;49.540;11.932;2023-01-20T04:18:10;19.77;;;12.30;;
11037;SDS011;5572;49.540;11.932;2023-01-20T04:20:38;25.77;;;12.20;;
11037;SDS011;5572;49.540;11.932;2023-01-20T04:23:07;18.53;;;11.20;;
11037;SDS011;5572;49.540;11.932;2023-01-20T04:25:37;17.83;;;10.27;;
11037;SDS011;5572;49.540;11.932;2023-01-20T04:28:04;10.83;;;7.23;;
11037;SDS011;5572;49.540;11.932;2023-01-20T04:30:30;20.70;;;11.57;;
11037;SDS011;5572;49.540;11.932;2023-01-20T04:32:57;18.17;;;11.57;;
11037;SDS011;5572;49.540;11.932;2023-01-20T04:35:23;26.27;;;12.40;;
11037;SDS011;5572;49.540;11.932;2023-01-20T04:37:50;18.00;;;11.13;;
11037;SDS011;5572;49.540;11.932;2023-01-20T04:40:18;14.67;;;8.93;;
11037;SDS011;5572;49.540;11.932;2023-01-20T04:42:44;13.57;;;8.53;;
11037;SDS011;5572;49.540;11.932;2023-01-20T04:45:13;23.17;;;11.60;;
11037;SDS011;5572;49.540;11.932;2023-01-20T04:47:40;22.97;;;11.17;;
11037;SDS011;5572;49.540;11.932;2023-01-20T04:50:08;24.23;;;12.37;;
11037;SDS011;5572;49.540;11.932;2023-01-20T04:52:35;25.40;;;11.77;;
11037;SDS011;5572;49.540;11.932;2023-01-20T04:55:02;15.53;;;9.97;;
11037;SDS011;5572;49.540;11.932;2023-01-20T04:57:30;20.53;;;10.50;;
11037;SDS011;5572;49.540;11.932;2023-01-20T04:59:57;19.33;;;9.63;;
11037;SDS011;5572;49.540;11.932;2023-01-20T05:02:23;19.73;;;11.17;;
11037;SDS011;5572;49.540;11.932;2023-01-20T05:04:50;18.00;;;11.30;;
11037;SDS011;5572;49.540;11.932;2023-01-20T05:07:16;19.73;;;11.47;;
11037;SDS011;5572;49.540;11.932;2023-01-20T05:09:43;19.20;;;10.40;;
11037;SDS011;5572;49.540;11.932;2023-01-20T05:12:09;21.47;;;12.33;;
11037;SDS011;5572;49.540;11.932;2023-01-20T05:14:37;22.40;;;12.37;;
11037;SDS011;5572;49.540;11.932;2023-01-20T05:17:04;13.47;;;7.30;;
11037;SDS011;5572;49.540;11.932;2023-01-20T05:19:30;13.53;;;7.93;;
11037;SDS011;5572;49.540;11.932;2023-01-20T05:21:57;13.73;;;9.17;;
11037;SDS011;5572;49.540;11.932;2023-01-20T05:24:24;18.07;;;10.83;;
11037;SDS011;5572;49.540;11.932;2023-01-20T05:26:51;18.30;;;10.87;;
11037;SDS011;5572;49.540;11.932;2023-01-20T05:29:17;24.60;;;11.60;;
11037;SDS011;5572;49.540;11.932;2023-01-20T05:31:45;23.13;;;12.03;;
11037;SDS011;5572;49.540;11.932;2023-01-20T05:34:12;16.70;;;11.50;;
11037;SDS011;5572;49.540;11.932;2023-01-20T05:36:40;23.83;;;11.90;;
11037;SDS011;5572;49.540;11.932;2023-01-20T05:39:06;21.77;;;9.33;;
11037;SDS011;5572;49.540;11.932;2023-01-20T05:41:32;23.07;;;12.93;;
11037;SDS011;5572;49.540;11.932;2023-01-20T05:43:59;16.73;;;9.50;;
11037;SDS011;5572;49.540;11.932;2023-01-20T05:46:26;19.27;;;10.03;;
11037;SDS011;5572;49.540;11.932;2023-01-20T05:48:53;13.83;;;8.93;;
11037;SDS011;5572;49.540;11.932;2023-01-20T05:51:20;19.07;;;11.50;;
11037;SDS011;5572;49.540;11.932;2023-01-20T05:53:47;21.00;;;12.20;;
11037;SDS011;5572;49.540;11.932;2023-01-20T05:56:13;19.87;;;11.33;;
11037;SDS011;5572;49.540;11.932;2023-01-20T05:58:40;28.10;;;12.93;;
11037;SDS011;5572;49.540;11.932;2023-01-20T06:01:07;23.90;;;14.00;;
11037;SDS011;5572;49.540;11.932;2023-01-20T06:03:35;19.40;;;11.73;;
11037;SDS011;5572;49.540;11.932;2023-01-20T06:06:04;22.80;;;9.97;;
11037;SDS011;5572;49.540;11.932;2023-01-20T06:08:33;20.17;;;12.20;;
11037;SDS011;5572;49.540;11.932;2023-01-20T06:10:59;23.57;;;13.33;;
11037;SDS011;5572;49.540;11.932;2023-01-20T06:13:26;24.23;;;13.50;;
11037;SDS011;5572;49.540;11.932;2023-01-20T06:15:53;18.40;;;10.80;;
11037;SDS011;5572;49.540;11.932;2023-01-20T06:18:21;25.77;;;14.00;;
11037;SDS011;5572;49.540;11.932;2023-01-20T06:20:48;26.00;;;13.90;;
11037;SDS011;5572;49.540;11.932;2023-01-20T06:23:16;20.50;;;12.27;;
11037;SDS011;5572;49.540;11.932;2023-01-20T06:25:43;21.97;;;12.00;;
11037;SDS011;5572;49.540;11.932;2023-01-20T06:28:09;26.50;;;14.07;;
11037;SDS011;5572;49.540;11.932;2023-01-20T06:30:36;36.37;;;17.47;;
11037;SDS011;5572;49.540;11.932;2023-01-20T06:33:03;25.93;;;15.43;;
11037;SDS011;5572;49.540;11.932;2023-01-20T06:35:34;23.00;;;13.03;;
11037;SDS011;5572;49.540;11.932;2023-01-20T06:38:00;22.87;;;13.80;;
11037;SDS011;5572;49.540;11.932;2023-01-20T06:40:28;29.63;;;14.73;;
11037;SDS011;5572;49.540;11.932;2023-01-20T06:42:56;28.17;;;14.17;;
11037;SDS011;5572;49.540;11.932;2023-01-20T06:45:22;27.37;;;13.63;;
11037;SDS011;5572;49.540;11.932;2023-01-20T06:47:49;32.03;;;14.63;;
11037;SDS011;5572;49.540;11.932;2023-01-20T06:50:16;24.30;;;12.47;;
11037;SDS011;5572;49.540;11.932;2023-01-20T06:52:42;25.07;;;15.60;;
11037;SDS011;5572;49.540;11.932;2023-01-20T06:55:09;20.53;;;13.23;;
11037;SDS011;5572;49.540;11.932;2023-01-20T06:57:37;23.13;;;14.13;;
11037;SDS011;5572;49.540;11.932;2023-01-20T07:00:04;26.80;;;15.00;;
11037;SDS011;5572;49.540;11.932;2023-01-20T07:02:31;24.87;;;14.57;;
11037;SDS011;5572;49.540;11.932;2023-01-20T07:04:58;27.53;;;14.13;;
11037;SDS011;5572;49.540;11.932;2023-01-20T07:07:24;27.07;;;15.63;;
11037;SDS011;5572;49.540;11.932;2023-01-20T07:09:52;25.40;;;15.00;;
11037;SDS011;5572;49.540;11.932;2023-01-20T07:12:19;33.47;;;17.43;;
11037;SDS011;5572;49.540;11.932;2023-01-20T07:14:47;28.33;;;16.97;;
11037;SDS011;5572;49.540;11.932;2023-01-20T07:17:14;26.23;;;16.37;;
11037;SDS011;5572;49.540;11.932;2023-01-20T07:19:40;30.70;;;16.90;;
11037;SDS011;5572;49.540;11.932;2023-01-20T07:22:07;32.13;;;16.97;;
11037;SDS011;5572;49.540;11.932;2023-01-20T07:24:33;36.97;;;18.57;;
11037;SDS011;5572;49.540;11.932;2023-01-20T07:27:00;33.63;;;17.60;;
11037;SDS011;5572;49.540;11.932;2023-01-20T07:29:26;33.77;;;17.63;;
11037;SDS011;5572;49.540;11.932;2023-01-20T07:31:54;34.27;;;18.90;;
11037;SDS011;5572;49.540;11.932;2023-01-20T07:34:21;36.77;;;19.63;;
11037;SDS011;5572;49.540;11.932;2023-01-20T07:36:49;40.10;;;22.17;;
11037;SDS011;5572;49.540;11.932;2023-01-20T07:39:16;38.77;;;18.57;;
11037;SDS011;5572;49.540;11.932;2023-01-20T07:41:44;34.63;;;19.37;;
11037;SDS011;5572;49.540;11.932;2023-01-20T07:44:12;33.80;;;17.20;;
11037;SDS011;5572;49.540;11.932;2023-01-20T07:46:39;31.27;;;16.83;;
11037;SDS011;5572;49.540;11.932;2023-01-20T13:51:40;6.97;;;4.67;;
11037;SDS011;5572;49.540;11.932;2023-01-20T14:04:31;74.10;;;25.57;;
11037;SDS011;5572;49.540;11.932;2023-01-20T14:10:12;25.80;;;10.20;;
11037;SDS011;5572;49.540;11.932;2023-01-20T14:12:40;11.90;;;6.50;;
11037;SDS011;5572;49.540;11.932;2023-01-20T14:15:21;12.50;;;7.10;;
11037;SDS011;5572;49.540;11.932;2023-01-20T14:17:53;11.87;;;6.40;;
11037;SDS011;5572;49.540;11.932;2023-01-20T14:20:24;13.23;;;6.83;;
11037;SDS011;5572;49.540;11.932;2023-01-20T14:22:54;11.60;;;6.40;;
11037;SDS011;5572;49.540;11.932;2023-01-20T14:28:27;11.07;;;5.93;;
11037;SDS011;5572;49.540;11.932;2023-01-20T14:31:10;11.73;;;6.23;;
11037;SDS011;5572;49.540;11.932;2023-01-20T14:33:42;8.30;;;5.97;;
11037;SDS011;5572;49.540;11.932;2023-01-20T16:16:02;26.07;;;9.87;;
11037;SDS011;5572;49.540;11.932;2023-01-20T16:22:24;13.53;;;6.43;;
11037;SDS011;5572;49.540;11.932;2023-01-20T16:24:53;55.97;;;18.70;;
11037;SDS011;5572;49.540;11.932;2023-01-20T17:45:11;24.20;;;10.87;;
11037;SDS011;5572;49.540;11.932;2023-01-20T18:57:04;15.17;;;7.90;;
11037;SDS011;5572;49.540;11.932;2023-01-20T18:59:39;16.07;;;8.40;;
11037;SDS011;5572;49.540;11.932;2023-01-20T19:02:15;12.37;;;7.33;;
11037;SDS011;5572;49.540;11.932;2023-01-20T19:04:48;13.97;;;7.60;;
11037;SDS011;5572;49.540;11.932;2023-01-20T19:07:16;11.80;;;8.40;;
11037;SDS011;5572;49.540;11.932;2023-01-20T19:09:45;24.37;;;15.07;;
11037;SDS011;5572;49.540;11.932;2023-01-20T19:12:14;13.13;;;7.87;;
11037;SDS011;5572;49.540;11.932;2023-01-20T19:14:42;9.17;;;6.77;;
11037;SDS011;5572;49.540;11.932;2023-01-20T19:17:10;9.93;;;6.60;;
11037;SDS011;5572;49.540;11.932;2023-01-20T19:19:38;10.63;;;5.60;;
11037;SDS011;5572;49.540;11.932;2023-01-20T19:36:12;13.90;;;7.77;;
11037;SDS011;5572;49.540;11.932;2023-01-20T19:38:41;177.53;;;45.77;;
11037;SDS011;5572;49.540;11.932;2023-01-20T19:41:11;50.37;;;19.50;;
11037;SDS011;5572;49.540;11.932;2023-01-20T19:43:40;132.80;;;38.43;;
11037;SDS011;5572;49.540;11.932;2023-01-20T19:46:10;161.97;;;42.93;;
